sensor_id;sensor_type;location;lat;lon;timestamp;temperature;humidity
17849;DHT22;9050;48.746;9.232;2022-09-03T13:21:47;17.10;99.90
17849;DHT22;9050;48.746;9.232;2022-09-03T13:24:27;17.00;99.90
17849;DHT22;9050;48.746;9.232;2022-09-03T13:27:05;17.10;99.90
17849;DHT22;9050;48.746;9.232;2022-09-03T13:29:47;17.10;99.90
17849;DHT22;9050;48.746;9.232;2022-09-03T13:32:27;17.20;99.90
17849;DHT22;9050;48.746;9.232;2022-09-03T13:34:58;17.20;99.90
17849;DHT22;9050;48.746;9.232;2022-09-03T13:37:34;17.30;99.90
17849;DHT22;9050;48.746;9.232;2022-09-03T13:40:12;17.30;99.90
17849;DHT22;9050;48.746;9.232;2022-09-03T13:42:44;17.50;99.90
17849;DHT22;9050;48.746;9.232;2022-09-03T13:45:22;17.60;99.90
17849;DHT22;9050;48.746;9.232;2022-09-03T13:47:55;17.80;99.90
17849;DHT22;9050;48.746;9.232;2022-09-03T13:50:44;18.20;99.90
17849;DHT22;9050;48.746;9.232;2022-09-03T13:53:18;18.40;99.90
17849;DHT22;9050;48.746;9.232;2022-09-03T13:55:52;18.80;99.90
17849;DHT22;9050;48.746;9.232;2022-09-03T13:58:24;18.90;99.90
17849;DHT22;9050;48.746;9.232;2022-09-03T14:01:05;18.90;99.90
17849;DHT22;9050;48.746;9.232;2022-09-03T14:03:37;18.80;99.90
17849;DHT22;9050;48.746;9.232;2022-09-03T14:06:13;18.60;99.90
17849;DHT22;9050;48.746;9.232;2022-09-03T14:08:57;18.50;99.90
17849;DHT22;9050;48.746;9.232;2022-09-03T14:11:29;18.50;99.90
17849;DHT22;9050;48.746;9.232;2022-09-03T14:14:06;18.70;99.90
17849;DHT22;9050;48.746;9.232;2022-09-03T14:16:42;18.70;99.90
17849;DHT22;9050;48.746;9.232;2022-09-03T14:19:15;18.70;99.90
17849;DHT22;9050;48.746;9.232;2022-09-03T14:21:49;18.80;99.90
17849;DHT22;9050;48.746;9.232;2022-09-03T14:24:22;18.70;99.90
17849;DHT22;9050;48.746;9.232;2022-09-03T14:26:52;18.80;99.90
17849;DHT22;9050;48.746;9.232;2022-09-03T14:29:23;19.10;99.90
17849;DHT22;9050;48.746;9.232;2022-09-03T14:32:12;19.10;99.90
17849;DHT22;9050;48.746;9.232;2022-09-03T14:34:53;19.30;99.90
17849;DHT22;9050;48.746;9.232;2022-09-03T14:37:36;19.40;99.90
17849;DHT22;9050;48.746;9.232;2022-09-03T14:40:12;19.30;99.90
17849;DHT22;9050;48.746;9.232;2022-09-03T14:43:01;19.20;99.90
17849;DHT22;9050;48.746;9.232;2022-09-03T14:45:49;19.10;99.90
17849;DHT22;9050;48.746;9.232;2022-09-03T14:51:22;19.10;99.90
17849;DHT22;9050;48.746;9.232;2022-09-03T14:54:06;19.10;99.90
17849;DHT22;9050;48.746;9.232;2022-09-03T14:56:46;19.10;99.90
17849;DHT22;9050;48.746;9.232;2022-09-03T14:59:28;19.30;99.90
17849;DHT22;9050;48.746;9.232;2022-09-03T15:05:08;19.80;99.90
17849;DHT22;9050;48.746;9.232;2022-09-03T15:07:42;20.10;99.90
17849;DHT22;9050;48.746;9.232;2022-09-03T15:10:16;20.30;99.90
17849;DHT22;9050;48.746;9.232;2022-09-03T15:12:50;20.50;99.90
17849;DHT22;9050;48.746;9.232;2022-09-03T15:15:21;20.60;99.90
17849;DHT22;9050;48.746;9.232;2022-09-03T15:18:02;20.50;99.90
17849;DHT22;9050;48.746;9.232;2022-09-03T15:20:45;20.70;99.90
17849;DHT22;9050;48.746;9.232;2022-09-03T15:23:24;20.60;99.90
17849;DHT22;9050;48.746;9.232;2022-09-03T15:26:22;21.30;99.90
17849;DHT22;9050;48.746;9.232;2022-09-03T15:32:04;21.90;99.90
17849;DHT22;9050;48.746;9.232;2022-09-03T15:34:55;22.00;99.90
17849;DHT22;9050;48.746;9.232;2022-09-03T15:37:27;21.70;99.90
17849;DHT22;9050;48.746;9.232;2022-09-03T15:40:04;21.60;99.90
17849;DHT22;9050;48.746;9.232;2022-09-03T15:42:31;21.80;99.90
17849;DHT22;9050;48.746;9.232;2022-09-03T15:45:05;21.80;99.90
17849;DHT22;9050;48.746;9.232;2022-09-03T15:47:51;22.20;99.90
17849;DHT22;9050;48.746;9.232;2022-09-03T15:50:28;22.20;99.90
17849;DHT22;9050;48.746;9.232;2022-09-03T15:53:01;21.70;99.90
17849;DHT22;9050;48.746;9.232;2022-09-03T15:55:33;21.60;99.90
17849;DHT22;9050;48.746;9.232;2022-09-03T15:58:08;21.70;99.90
17849;DHT22;9050;48.746;9.232;2022-09-03T16:00:52;21.50;99.90
17849;DHT22;9050;48.746;9.232;2022-09-03T16:03:34;21.30;99.90
17849;DHT22;9050;48.746;9.232;2022-09-03T16:06:27;21.30;99.90
17849;DHT22;9050;48.746;9.232;2022-09-03T16:09:07;21.10;99.90
17849;DHT22;9050;48.746;9.232;2022-09-03T16:11:38;21.00;99.90
17849;DHT22;9050;48.746;9.232;2022-09-03T16:14:15;21.00;99.90
17849;DHT22;9050;48.746;9.232;2022-09-03T16:16:53;21.20;99.90
17849;DHT22;9050;48.746;9.232;2022-09-03T16:19:27;21.40;99.90
17849;DHT22;9050;48.746;9.232;2022-09-03T16:21:59;21.50;99.90
17849;DHT22;9050;48.746;9.232;2022-09-03T16:24:32;21.40;99.90
17849;DHT22;9050;48.746;9.232;2022-09-03T16:27:08;21.40;99.90
17849;DHT22;9050;48.746;9.232;2022-09-03T16:29:39;20.80;99.90
17849;DHT22;9050;48.746;9.232;2022-09-03T16:32:14;20.70;99.90
17849;DHT22;9050;48.746;9.232;2022-09-03T16:34:52;20.70;99.90
17849;DHT22;9050;48.746;9.232;2022-09-03T16:37:26;20.50;99.90
17849;DHT22;9050;48.746;9.232;2022-09-03T16:39:59;20.30;99.90
17849;DHT22;9050;48.746;9.232;2022-09-03T16:42:34;20.20;99.90
17849;DHT22;9050;48.746;9.232;2022-09-03T16:45:14;20.30;99.90
17849;DHT22;9050;48.746;9.232;2022-09-03T16:47:54;20.10;99.90
17849;DHT22;9050;48.746;9.232;2022-09-03T16:50:36;20.00;99.90
17849;DHT22;9050;48.746;9.232;2022-09-03T16:53:12;19.90;99.90
17849;DHT22;9050;48.746;9.232;2022-09-03T16:56:01;20.00;99.90
17849;DHT22;9050;48.746;9.232;2022-09-03T16:58:38;20.10;99.90
17849;DHT22;9050;48.746;9.232;2022-09-03T17:01:17;20.10;99.90
17849;DHT22;9050;48.746;9.232;2022-09-03T17:03:59;20.20;99.90
17849;DHT22;9050;48.746;9.232;2022-09-03T17:06:53;20.20;99.90
17849;DHT22;9050;48.746;9.232;2022-09-03T17:09:32;20.30;99.90
17849;DHT22;9050;48.746;9.232;2022-09-03T17:12:07;20.40;99.90
17849;DHT22;9050;48.746;9.232;2022-09-03T17:14:56;20.50;99.90
17849;DHT22;9050;48.746;9.232;2022-09-03T17:17:46;20.60;99.90
17849;DHT22;9050;48.746;9.232;2022-09-03T17:20:20;20.70;99.90
17849;DHT22;9050;48.746;9.232;2022-09-03T17:23:00;20.60;99.90
17849;DHT22;9050;48.746;9.232;2022-09-03T17:25:35;20.80;99.90
17849;DHT22;9050;48.746;9.232;2022-09-03T17:28:14;20.50;99.90
17849;DHT22;9050;48.746;9.232;2022-09-03T17:30:51;20.40;99.90
17849;DHT22;9050;48.746;9.232;2022-09-03T17:33:48;20.30;99.90
17849;DHT22;9050;48.746;9.232;2022-09-03T17:36:22;20.10;99.90
17849;DHT22;9050;48.746;9.232;2022-09-03T17:39:21;20.00;99.90
17849;DHT22;9050;48.746;9.232;2022-09-03T17:41:52;19.90;99.90
17849;DHT22;9050;48.746;9.232;2022-09-03T17:44:33;19.70;99.90
17849;DHT22;9050;48.746;9.232;2022-09-03T17:47:18;19.50;99.90
17849;DHT22;9050;48.746;9.232;2022-09-03T17:49:51;19.30;99.90
17849;DHT22;9050;48.746;9.232;2022-09-03T17:52:24;19.10;99.90
17849;DHT22;9050;48.746;9.232;2022-09-03T17:54:58;19.00;99.90
17849;DHT22;9050;48.746;9.232;2022-09-03T17:57:28;18.90;99.90
17849;DHT22;9050;48.746;9.232;2022-09-03T18:00:00;18.90;99.90
17849;DHT22;9050;48.746;9.232;2022-09-03T18:02:32;18.90;99.90
17849;DHT22;9050;48.746;9.232;2022-09-03T18:05:05;18.80;99.90
17849;DHT22;9050;48.746;9.232;2022-09-03T18:07:41;18.70;99.90
17849;DHT22;9050;48.746;9.232;2022-09-03T18:10:22;18.70;99.90
17849;DHT22;9050;48.746;9.232;2022-09-03T18:12:55;18.60;99.90
17849;DHT22;9050;48.746;9.232;2022-09-03T18:15:28;18.60;99.90
17849;DHT22;9050;48.746;9.232;2022-09-03T18:18:00;18.70;99.90
17849;DHT22;9050;48.746;9.232;2022-09-03T18:20:40;18.70;99.90
17849;DHT22;9050;48.746;9.232;2022-09-03T18:23:30;18.50;99.90
17849;DHT22;9050;48.746;9.232;2022-09-03T18:26:20;18.30;99.90
17849;DHT22;9050;48.746;9.232;2022-09-03T18:29:10;18.20;99.90
17849;DHT22;9050;48.746;9.232;2022-09-03T18:31:55;18.00;99.90
17849;DHT22;9050;48.746;9.232;2022-09-03T18:34:40;18.00;99.90
17849;DHT22;9050;48.746;9.232;2022-09-03T18:37:26;17.80;99.90
17849;DHT22;9050;48.746;9.232;2022-09-03T18:40:14;17.70;99.90
17849;DHT22;9050;48.746;9.232;2022-09-03T18:43:08;17.60;99.90
17849;DHT22;9050;48.746;9.232;2022-09-03T18:46:01;17.50;99.90
17849;DHT22;9050;48.746;9.232;2022-09-03T18:48:56;17.40;99.90
17849;DHT22;9050;48.746;9.232;2022-09-03T18:51:51;17.30;99.90
17849;DHT22;9050;48.746;9.232;2022-09-03T18:54:45;17.40;99.90
17849;DHT22;9050;48.746;9.232;2022-09-03T18:57:39;17.60;99.90
17849;DHT22;9050;48.746;9.232;2022-09-03T19:00:29;17.60;99.90
17849;DHT22;9050;48.746;9.232;2022-09-03T19:03:28;17.70;99.90
17849;DHT22;9050;48.746;9.232;2022-09-03T19:06:24;17.60;99.90
17849;DHT22;9050;48.746;9.232;2022-09-03T19:09:19;17.60;99.90
17849;DHT22;9050;48.746;9.232;2022-09-03T19:12:13;17.60;99.90
17849;DHT22;9050;48.746;9.232;2022-09-03T19:15:05;17.50;99.90
17849;DHT22;9050;48.746;9.232;2022-09-03T19:18:09;17.50;99.90
17849;DHT22;9050;48.746;9.232;2022-09-03T19:21:02;17.50;99.90
17849;DHT22;9050;48.746;9.232;2022-09-03T19:23:50;17.70;99.90
17849;DHT22;9050;48.746;9.232;2022-09-03T19:26:44;17.80;99.90
17849;DHT22;9050;48.746;9.232;2022-09-03T19:29:42;17.80;99.90
17849;DHT22;9050;48.746;9.232;2022-09-03T19:32:35;17.80;99.90
17849;DHT22;9050;48.746;9.232;2022-09-03T19:35:31;17.60;99.90
17849;DHT22;9050;48.746;9.232;2022-09-03T19:38:25;17.70;99.90
17849;DHT22;9050;48.746;9.232;2022-09-03T19:41:19;17.90;99.90
17849;DHT22;9050;48.746;9.232;2022-09-03T19:44:20;17.80;99.90
17849;DHT22;9050;48.746;9.232;2022-09-03T19:47:08;17.60;99.90
17849;DHT22;9050;48.746;9.232;2022-09-03T19:50:03;17.60;99.90
17849;DHT22;9050;48.746;9.232;2022-09-03T19:52:57;17.40;99.90
17849;DHT22;9050;48.746;9.232;2022-09-03T19:55:45;17.30;99.90
17849;DHT22;9050;48.746;9.232;2022-09-03T19:58:32;17.30;99.90
17849;DHT22;9050;48.746;9.232;2022-09-03T20:01:18;17.20;99.90
17849;DHT22;9050;48.746;9.232;2022-09-03T20:04:13;17.20;99.90
17849;DHT22;9050;48.746;9.232;2022-09-03T20:07:00;17.10;99.90
17849;DHT22;9050;48.746;9.232;2022-09-03T20:09:49;17.10;99.90
17849;DHT22;9050;48.746;9.232;2022-09-03T20:12:37;17.10;99.90
17849;DHT22;9050;48.746;9.232;2022-09-03T20:15:06;17.10;99.90
17849;DHT22;9050;48.746;9.232;2022-09-03T20:17:37;17.00;99.90
17849;DHT22;9050;48.746;9.232;2022-09-03T20:20:14;16.90;99.90
17849;DHT22;9050;48.746;9.232;2022-09-03T20:22:56;16.90;99.90
17849;DHT22;9050;48.746;9.232;2022-09-03T20:25:48;16.90;99.90
17849;DHT22;9050;48.746;9.232;2022-09-03T20:28:31;16.90;99.90
17849;DHT22;9050;48.746;9.232;2022-09-03T20:31:08;16.90;99.90
17849;DHT22;9050;48.746;9.232;2022-09-03T20:33:54;16.80;99.90
17849;DHT22;9050;48.746;9.232;2022-09-03T20:36:32;16.80;99.90
17849;DHT22;9050;48.746;9.232;2022-09-03T20:42:03;16.80;99.90
17849;DHT22;9050;48.746;9.232;2022-09-03T20:44:53;16.90;99.90
17849;DHT22;9050;48.746;9.232;2022-09-03T20:47:45;16.90;99.90
17849;DHT22;9050;48.746;9.232;2022-09-03T20:50:24;16.90;99.90
17849;DHT22;9050;48.746;9.232;2022-09-03T20:53:01;16.90;99.90
17849;DHT22;9050;48.746;9.232;2022-09-03T20:55:37;16.80;99.90
17849;DHT22;9050;48.746;9.232;2022-09-03T20:58:14;16.80;99.90
17849;DHT22;9050;48.746;9.232;2022-09-03T21:00:46;16.80;99.90
17849;DHT22;9050;48.746;9.232;2022-09-03T21:03:18;16.80;99.90
17849;DHT22;9050;48.746;9.232;2022-09-03T21:05:56;16.70;99.90
17849;DHT22;9050;48.746;9.232;2022-09-03T21:08:48;16.70;99.90
17849;DHT22;9050;48.746;9.232;2022-09-03T21:11:20;16.70;99.90
17849;DHT22;9050;48.746;9.232;2022-09-03T21:13:53;16.80;99.90
17849;DHT22;9050;48.746;9.232;2022-09-03T21:16:29;16.80;99.90
17849;DHT22;9050;48.746;9.232;2022-09-03T21:19:08;16.90;99.90
17849;DHT22;9050;48.746;9.232;2022-09-03T21:21:46;16.90;99.90
17849;DHT22;9050;48.746;9.232;2022-09-03T21:24:19;16.80;99.90
17849;DHT22;9050;48.746;9.232;2022-09-03T21:26:49;16.80;99.90
17849;DHT22;9050;48.746;9.232;2022-09-03T21:29:23;16.90;99.90
17849;DHT22;9050;48.746;9.232;2022-09-03T21:31:54;16.80;99.90
17849;DHT22;9050;48.746;9.232;2022-09-03T21:34:28;16.80;99.90
17849;DHT22;9050;48.746;9.232;2022-09-03T21:36:55;16.80;99.90
17849;DHT22;9050;48.746;9.232;2022-09-03T21:39:27;16.80;99.90
17849;DHT22;9050;48.746;9.232;2022-09-03T21:42:04;16.80;99.90
17849;DHT22;9050;48.746;9.232;2022-09-03T21:44:51;16.80;99.90
17849;DHT22;9050;48.746;9.232;2022-09-03T21:47:19;16.80;99.90
17849;DHT22;9050;48.746;9.232;2022-09-03T21:50:02;16.80;99.90
17849;DHT22;9050;48.746;9.232;2022-09-03T21:52:38;16.70;99.90
17849;DHT22;9050;48.746;9.232;2022-09-03T21:55:18;16.80;99.90
17849;DHT22;9050;48.746;9.232;2022-09-03T21:57:54;16.70;99.90
17849;DHT22;9050;48.746;9.232;2022-09-03T22:00:27;16.70;99.90
17849;DHT22;9050;48.746;9.232;2022-09-03T22:02:57;16.60;99.90
17849;DHT22;9050;48.746;9.232;2022-09-03T22:05:30;16.60;99.90
17849;DHT22;9050;48.746;9.232;2022-09-03T22:08:09;16.60;99.90
17849;DHT22;9050;48.746;9.232;2022-09-03T22:10:46;16.60;99.90
17849;DHT22;9050;48.746;9.232;2022-09-03T22:13:22;16.60;99.90
17849;DHT22;9050;48.746;9.232;2022-09-03T22:15:59;16.50;99.90
17849;DHT22;9050;48.746;9.232;2022-09-03T22:18:28;16.50;99.90
17849;DHT22;9050;48.746;9.232;2022-09-03T22:21:02;16.50;99.90
17849;DHT22;9050;48.746;9.232;2022-09-03T22:23:44;16.60;99.90
17849;DHT22;9050;48.746;9.232;2022-09-03T22:26:22;16.70;99.90
17849;DHT22;9050;48.746;9.232;2022-09-03T22:29:05;16.60;99.90
17849;DHT22;9050;48.746;9.232;2022-09-03T22:31:48;16.60;99.90
17849;DHT22;9050;48.746;9.232;2022-09-03T22:34:52;16.50;99.90
17849;DHT22;9050;48.746;9.232;2022-09-03T22:37:30;16.50;99.90
17849;DHT22;9050;48.746;9.232;2022-09-03T22:40:07;16.50;99.90
17849;DHT22;9050;48.746;9.232;2022-09-03T22:42:57;16.50;99.90
17849;DHT22;9050;48.746;9.232;2022-09-03T22:45:37;16.40;99.90
17849;DHT22;9050;48.746;9.232;2022-09-03T22:48:19;16.40;99.90
17849;DHT22;9050;48.746;9.232;2022-09-03T22:50:54;16.40;99.90
17849;DHT22;9050;48.746;9.232;2022-09-03T22:53:35;16.40;99.90
17849;DHT22;9050;48.746;9.232;2022-09-03T22:56:07;16.40;99.90
17849;DHT22;9050;48.746;9.232;2022-09-03T22:58:37;16.40;99.90
17849;DHT22;9050;48.746;9.232;2022-09-03T23:01:09;16.30;99.90
17849;DHT22;9050;48.746;9.232;2022-09-03T23:03:46;16.30;99.90
17849;DHT22;9050;48.746;9.232;2022-09-03T23:06:21;16.20;99.90
17849;DHT22;9050;48.746;9.232;2022-09-03T23:08:55;16.20;99.90
17849;DHT22;9050;48.746;9.232;2022-09-03T23:11:25;16.20;99.90
17849;DHT22;9050;48.746;9.232;2022-09-03T23:13:56;16.20;99.90
17849;DHT22;9050;48.746;9.232;2022-09-03T23:16:29;16.10;99.90
17849;DHT22;9050;48.746;9.232;2022-09-03T23:19:11;16.10;99.90
17849;DHT22;9050;48.746;9.232;2022-09-03T23:21:49;16.00;99.90
17849;DHT22;9050;48.746;9.232;2022-09-03T23:24:24;16.00;99.90
17849;DHT22;9050;48.746;9.232;2022-09-03T23:26:53;15.90;99.90
17849;DHT22;9050;48.746;9.232;2022-09-03T23:29:23;15.90;99.90
17849;DHT22;9050;48.746;9.232;2022-09-03T23:31:58;15.90;99.90
17849;DHT22;9050;48.746;9.232;2022-09-03T23:34:27;15.90;99.90
17849;DHT22;9050;48.746;9.232;2022-09-03T23:37:07;15.80;99.90
17849;DHT22;9050;48.746;9.232;2022-09-03T23:39:59;15.80;99.90
17849;DHT22;9050;48.746;9.232;2022-09-03T23:42:36;15.80;99.90
17849;DHT22;9050;48.746;9.232;2022-09-03T23:45:20;15.70;99.90
17849;DHT22;9050;48.746;9.232;2022-09-03T23:47:52;15.70;99.90
17849;DHT22;9050;48.746;9.232;2022-09-03T23:50:32;15.70;99.90
17849;DHT22;9050;48.746;9.232;2022-09-03T23:53:15;15.70;99.90
17849;DHT22;9050;48.746;9.232;2022-09-03T23:55:55;15.60;99.90
17849;DHT22;9050;48.746;9.232;2022-09-03T23:58:32;15.60;99.90
